sensor_id;sensor_type;location;lat;lon;timestamp;temperature;humidity
16178;DHT22;8195;51.220;9.746;2023-03-01T05:14:39;-2.40;97.20
16178;DHT22;8195;51.220;9.746;2023-03-01T05:24:40;-2.40;97.20
16178;DHT22;8195;51.220;9.746;2023-03-01T05:34:41;-2.30;97.20
16178;DHT22;8195;51.220;9.746;2023-03-01T05:44:42;-2.30;97.20
16178;DHT22;8195;51.220;9.746;2023-03-01T05:54:43;-2.20;97.20
16178;DHT22;8195;51.220;9.746;2023-03-01T06:04:43;-2.30;97.20
16178;DHT22;8195;51.220;9.746;2023-03-01T06:14:45;-2.20;97.20
16178;DHT22;8195;51.220;9.746;2023-03-01T06:24:46;-2.10;97.20
16178;DHT22;8195;51.220;9.746;2023-03-01T06:34:47;-2.10;97.20
16178;DHT22;8195;51.220;9.746;2023-03-01T06:44:47;-2.00;97.20
16178;DHT22;8195;51.220;9.746;2023-03-01T06:54:48;-1.80;97.20
16178;DHT22;8195;51.220;9.746;2023-03-01T07:04:49;-1.30;97.20
16178;DHT22;8195;51.220;9.746;2023-03-01T07:14:50;-0.80;97.20
16178;DHT22;8195;51.220;9.746;2023-03-01T07:24:51;-0.30;97.20
16178;DHT22;8195;51.220;9.746;2023-03-01T07:34:51;0.60;97.20
16178;DHT22;8195;51.220;9.746;2023-03-01T07:44:52;1.20;97.20
16178;DHT22;8195;51.220;9.746;2023-03-01T07:54:52;1.90;97.20
16178;DHT22;8195;51.220;9.746;2023-03-01T08:04:53;2.50;97.20
16178;DHT22;8195;51.220;9.746;2023-03-01T08:14:54;3.20;97.20
16178;DHT22;8195;51.220;9.746;2023-03-01T08:24:54;6.60;97.20
16178;DHT22;8195;51.220;9.746;2023-03-01T08:34:55;8.20;97.20
16178;DHT22;8195;51.220;9.746;2023-03-01T08:44:55;11.00;91.10
16178;DHT22;8195;51.220;9.746;2023-03-01T08:54:56;12.50;88.80
16178;DHT22;8195;51.220;9.746;2023-03-01T09:04:57;11.20;87.50
16178;DHT22;8195;51.220;9.746;2023-03-01T09:14:57;10.40;92.60
16178;DHT22;8195;51.220;9.746;2023-03-01T09:24:58;12.40;85.90
16178;DHT22;8195;51.220;9.746;2023-03-01T09:34:58;12.60;84.30
16178;DHT22;8195;51.220;9.746;2023-03-01T09:45:05;13.40;82.80
16178;DHT22;8195;51.220;9.746;2023-03-01T09:55:33;13.80;83.20
16178;DHT22;8195;51.220;9.746;2023-03-01T10:05:41;13.70;82.10
16178;DHT22;8195;51.220;9.746;2023-03-01T10:15:48;13.30;80.60
16178;DHT22;8195;51.220;9.746;2023-03-01T10:26:09;13.00;81.90
16178;DHT22;8195;51.220;9.746;2023-03-01T10:36:12;12.30;82.80
16178;DHT22;8195;51.220;9.746;2023-03-01T10:46:41;13.60;81.80
16178;DHT22;8195;51.220;9.746;2023-03-01T10:56:53;12.70;82.10
16178;DHT22;8195;51.220;9.746;2023-03-01T11:06:59;10.60;84.20
16178;DHT22;8195;51.220;9.746;2023-03-01T11:17:13;9.90;85.20
16178;DHT22;8195;51.220;9.746;2023-03-01T11:27:38;9.80;87.10
16178;DHT22;8195;51.220;9.746;2023-03-01T11:48:02;8.20;89.60
16178;DHT22;8195;51.220;9.746;2023-03-01T12:29:28;5.50;97.20
16178;DHT22;8195;51.220;9.746;2023-03-01T12:50:00;5.00;97.20
16178;DHT22;8195;51.220;9.746;2023-03-01T13:00:33;4.50;97.20
16178;DHT22;8195;51.220;9.746;2023-03-01T13:10:54;4.60;97.20
16178;DHT22;8195;51.220;9.746;2023-03-01T13:20:57;4.50;97.20
16178;DHT22;8195;51.220;9.746;2023-03-01T13:30:58;4.20;97.20
16178;DHT22;8195;51.220;9.746;2023-03-01T13:41:00;4.10;97.20
16178;DHT22;8195;51.220;9.746;2023-03-01T13:51:07;3.90;97.20
16178;DHT22;8195;51.220;9.746;2023-03-01T14:01:28;3.70;97.20
16178;DHT22;8195;51.220;9.746;2023-03-01T14:21:39;3.80;97.20
16178;DHT22;8195;51.220;9.746;2023-03-01T14:31:40;3.80;97.20
16178;DHT22;8195;51.220;9.746;2023-03-01T14:41:40;3.70;97.20
16178;DHT22;8195;51.220;9.746;2023-03-01T14:51:47;3.70;97.20
16178;DHT22;8195;51.220;9.746;2023-03-01T15:01:53;3.70;97.20
16178;DHT22;8195;51.220;9.746;2023-03-01T15:11:54;3.70;97.20
16178;DHT22;8195;51.220;9.746;2023-03-01T15:21:55;3.60;97.20
16178;DHT22;8195;51.220;9.746;2023-03-01T15:31:59;3.60;97.20
16178;DHT22;8195;51.220;9.746;2023-03-01T15:42:00;3.50;97.20
16178;DHT22;8195;51.220;9.746;2023-03-01T15:52:02;3.40;97.20
16178;DHT22;8195;51.220;9.746;2023-03-01T16:02:09;3.40;97.20
16178;DHT22;8195;51.220;9.746;2023-03-01T16:12:16;3.30;97.20
16178;DHT22;8195;51.220;9.746;2023-03-01T16:22:17;3.10;97.20
16178;DHT22;8195;51.220;9.746;2023-03-01T16:32:17;3.10;97.20
16178;DHT22;8195;51.220;9.746;2023-03-01T16:42:18;3.00;97.20
16178;DHT22;8195;51.220;9.746;2023-03-01T16:52:19;3.00;97.20
16178;DHT22;8195;51.220;9.746;2023-03-01T17:02:20;2.80;97.20
16178;DHT22;8195;51.220;9.746;2023-03-01T17:12:20;2.70;97.20
16178;DHT22;8195;51.220;9.746;2023-03-01T17:22:21;2.60;97.20
16178;DHT22;8195;51.220;9.746;2023-03-01T17:32:22;2.50;97.20
16178;DHT22;8195;51.220;9.746;2023-03-01T17:42:22;2.50;97.20
16178;DHT22;8195;51.220;9.746;2023-03-01T17:52:23;2.30;97.20
16178;DHT22;8195;51.220;9.746;2023-03-01T18:02:23;2.20;97.20
16178;DHT22;8195;51.220;9.746;2023-03-01T18:12:24;2.20;97.20
16178;DHT22;8195;51.220;9.746;2023-03-01T18:22:24;2.10;97.20
16178;DHT22;8195;51.220;9.746;2023-03-01T18:32:25;1.90;97.20
16178;DHT22;8195;51.220;9.746;2023-03-01T18:42:26;1.90;97.20
16178;DHT22;8195;51.220;9.746;2023-03-01T18:52:26;1.90;97.20
16178;DHT22;8195;51.220;9.746;2023-03-01T19:02:27;1.80;97.20
16178;DHT22;8195;51.220;9.746;2023-03-01T19:12:27;1.90;97.20
16178;DHT22;8195;51.220;9.746;2023-03-01T19:22:28;2.00;97.20
16178;DHT22;8195;51.220;9.746;2023-03-01T19:32:28;2.00;97.20
16178;DHT22;8195;51.220;9.746;2023-03-01T19:42:29;1.80;97.20
16178;DHT22;8195;51.220;9.746;2023-03-01T19:52:29;1.90;97.20
16178;DHT22;8195;51.220;9.746;2023-03-01T20:02:30;1.80;97.20
16178;DHT22;8195;51.220;9.746;2023-03-01T20:12:31;1.80;97.20
16178;DHT22;8195;51.220;9.746;2023-03-01T20:22:31;1.70;97.20
16178;DHT22;8195;51.220;9.746;2023-03-01T20:32:32;1.70;97.20
16178;DHT22;8195;51.220;9.746;2023-03-01T20:42:33;1.70;97.20
16178;DHT22;8195;51.220;9.746;2023-03-01T20:52:33;1.60;97.20
16178;DHT22;8195;51.220;9.746;2023-03-01T21:02:34;1.60;97.20
16178;DHT22;8195;51.220;9.746;2023-03-01T21:12:34;1.50;97.20
16178;DHT22;8195;51.220;9.746;2023-03-01T21:22:35;1.40;97.20
16178;DHT22;8195;51.220;9.746;2023-03-01T21:32:35;1.30;97.20
16178;DHT22;8195;51.220;9.746;2023-03-01T21:42:36;1.30;97.20
16178;DHT22;8195;51.220;9.746;2023-03-01T21:52:37;1.30;97.20
16178;DHT22;8195;51.220;9.746;2023-03-01T22:02:37;1.10;97.20
16178;DHT22;8195;51.220;9.746;2023-03-01T22:12:38;1.10;97.20
16178;DHT22;8195;51.220;9.746;2023-03-01T22:22:38;1.20;97.20
16178;DHT22;8195;51.220;9.746;2023-03-01T22:32:39;1.10;97.20
16178;DHT22;8195;51.220;9.746;2023-03-01T22:42:40;1.10;97.20
16178;DHT22;8195;51.220;9.746;2023-03-01T22:52:40;1.00;97.20
16178;DHT22;8195;51.220;9.746;2023-03-01T23:02:41;1.00;97.20
16178;DHT22;8195;51.220;9.746;2023-03-01T23:12:41;1.00;97.20
16178;DHT22;8195;51.220;9.746;2023-03-01T23:22:42;1.10;97.20
16178;DHT22;8195;51.220;9.746;2023-03-01T23:32:43;1.00;97.20
16178;DHT22;8195;51.220;9.746;2023-03-01T23:42:43;1.00;97.20
16178;DHT22;8195;51.220;9.746;2023-03-01T23:52:44;1.00;97.20
